sensor_id;sensor_type;location;lat;lon;timestamp;pressure;altitude;pressure_sealevel;temperature;humidity
70304;BME280;57712;48.752;11.348;2023-04-30T00:01:25;97779.25;;;10.73;100.00
70304;BME280;57712;48.752;11.348;2023-04-30T00:03:52;97789.06;;;10.70;100.00
70304;BME280;57712;48.752;11.348;2023-04-30T00:06:19;97789.06;;;10.70;100.00
70304;BME280;57712;48.752;11.348;2023-04-30T00:08:46;97795.66;;;10.77;100.00
70304;BME280;57712;48.752;11.348;2023-04-30T00:11:12;97796.88;;;10.72;100.00
70304;BME280;57712;48.752;11.348;2023-04-30T00:13:39;97799.66;;;10.68;100.00
70304;BME280;57712;48.752;11.348;2023-04-30T00:16:08;97794.09;;;10.76;100.00
70304;BME280;57712;48.752;11.348;2023-04-30T00:18:35;97794.50;;;10.74;100.00
70304;BME280;57712;48.752;11.348;2023-04-30T00:21:02;97802.34;;;10.72;100.00
70304;BME280;57712;48.752;11.348;2023-04-30T00:23:29;97807.94;;;10.65;100.00
70304;BME280;57712;48.752;11.348;2023-04-30T00:25:56;97807.94;;;10.65;100.00
70304;BME280;57712;48.752;11.348;2023-04-30T00:28:22;97796.25;;;10.61;100.00
70304;BME280;57712;48.752;11.348;2023-04-30T00:30:49;97799.38;;;10.63;100.00
70304;BME280;57712;48.752;11.348;2023-04-30T00:33:16;97800.44;;;10.69;100.00
70304;BME280;57712;48.752;11.348;2023-04-30T00:35:43;97801.56;;;10.72;100.00
70304;BME280;57712;48.752;11.348;2023-04-30T00:38:09;97798.47;;;10.69;100.00
70304;BME280;57712;48.752;11.348;2023-04-30T00:40:37;97795.44;;;10.64;100.00
70304;BME280;57712;48.752;11.348;2023-04-30T00:43:03;97798.53;;;10.66;100.00
70304;BME280;57712;48.752;11.348;2023-04-30T00:45:30;97800.81;;;10.71;100.00
70304;BME280;57712;48.752;11.348;2023-04-30T00:47:57;97805.63;;;10.63;100.00
70304;BME280;57712;48.752;11.348;2023-04-30T00:50:24;97801.28;;;10.66;100.00
70304;BME280;57712;48.752;11.348;2023-04-30T00:52:51;97802.41;;;10.68;100.00
70304;BME280;57712;48.752;11.348;2023-04-30T00:55:18;97800.03;;;10.70;100.00
70304;BME280;57712;48.752;11.348;2023-04-30T00:57:45;97806.38;;;10.64;100.00
70304;BME280;57712;48.752;11.348;2023-04-30T01:00:12;97799.41;;;10.59;100.00
70304;BME280;57712;48.752;11.348;2023-04-30T01:02:39;97807.16;;;10.64;100.00
70304;BME280;57712;48.752;11.348;2023-04-30T01:05:06;97802.47;;;10.65;100.00
70304;BME280;57712;48.752;11.348;2023-04-30T01:07:34;97804.09;;;10.59;100.00
70304;BME280;57712;48.752;11.348;2023-04-30T01:10:01;97802.53;;;10.58;100.00
70304;BME280;57712;48.752;11.348;2023-04-30T01:13:02;97802.09;;;10.63;100.00
70304;BME280;57712;48.752;11.348;2023-04-30T01:15:45;97805.66;;;10.60;100.00
70304;BME280;57712;48.752;11.348;2023-04-30T01:18:22;97804.03;;;10.62;100.00
70304;BME280;57712;48.752;11.348;2023-04-30T01:20:53;97806.53;;;10.53;100.00
70304;BME280;57712;48.752;11.348;2023-04-30T01:23:39;97810.41;;;10.56;100.00
70304;BME280;57712;48.752;11.348;2023-04-30T01:26:42;97813.16;;;10.56;100.00
70304;BME280;57712;48.752;11.348;2023-04-30T01:29:15;97817.06;;;10.55;100.00
70304;BME280;57712;48.752;11.348;2023-04-30T01:31:44;97813.16;;;10.56;100.00
70304;BME280;57712;48.752;11.348;2023-04-30T01:34:11;97815.13;;;10.52;100.00
70304;BME280;57712;48.752;11.348;2023-04-30T01:36:52;97820.63;;;10.52;100.00
70304;BME280;57712;48.752;11.348;2023-04-30T01:39:42;97816.72;;;10.53;100.00
70304;BME280;57712;48.752;11.348;2023-04-30T01:42:22;97816.75;;;10.49;100.00
70304;BME280;57712;48.752;11.348;2023-04-30T01:45:18;97824.03;;;10.59;100.00
70304;BME280;57712;48.752;11.348;2023-04-30T01:48:02;97824.81;;;10.60;100.00
70304;BME280;57712;48.752;11.348;2023-04-30T01:50:33;97822.84;;;10.60;100.00
70304;BME280;57712;48.752;11.348;2023-04-30T01:53:07;97831.44;;;10.62;100.00
70304;BME280;57712;48.752;11.348;2023-04-30T01:55:40;97829.94;;;10.58;100.00
70304;BME280;57712;48.752;11.348;2023-04-30T01:58:12;97829.09;;;10.61;100.00
70304;BME280;57712;48.752;11.348;2023-04-30T02:00:40;97822.00;;;10.67;100.00
70304;BME280;57712;48.752;11.348;2023-04-30T02:03:07;97829.88;;;10.61;100.00
70304;BME280;57712;48.752;11.348;2023-04-30T02:05:34;97827.63;;;10.56;100.00
70304;BME280;57712;48.752;11.348;2023-04-30T02:08:01;97822.81;;;10.64;100.00
70304;BME280;57712;48.752;11.348;2023-04-30T02:10:28;97823.75;;;10.54;100.00
70304;BME280;57712;48.752;11.348;2023-04-30T02:12:55;97825.66;;;10.57;100.00
70304;BME280;57712;48.752;11.348;2023-04-30T02:15:22;97830.78;;;10.51;100.00
70304;BME280;57712;48.752;11.348;2023-04-30T02:17:49;97825.19;;;10.62;100.00
70304;BME280;57712;48.752;11.348;2023-04-30T02:20:16;97826.78;;;10.59;100.00
70304;BME280;57712;48.752;11.348;2023-04-30T02:22:42;97821.28;;;10.63;100.00
70304;BME280;57712;48.752;11.348;2023-04-30T02:25:09;97836.13;;;10.62;100.00
70304;BME280;57712;48.752;11.348;2023-04-30T02:27:38;97829.53;;;10.59;100.00
70304;BME280;57712;48.752;11.348;2023-04-30T02:30:05;97824.41;;;10.61;100.00
70304;BME280;57712;48.752;11.348;2023-04-30T02:32:32;97829.09;;;10.61;100.00
70304;BME280;57712;48.752;11.348;2023-04-30T02:34:59;97826.09;;;10.52;100.00
70304;BME280;57712;48.752;11.348;2023-04-30T02:37:26;97849.66;;;10.46;100.00
70304;BME280;57712;48.752;11.348;2023-04-30T02:39:53;97846.09;;;10.49;100.00
70304;BME280;57712;48.752;11.348;2023-04-30T02:42:20;97845.69;;;10.50;100.00
70304;BME280;57712;48.752;11.348;2023-04-30T02:44:47;97852.03;;;10.44;100.00
70304;BME280;57712;48.752;11.348;2023-04-30T02:47:14;97850.38;;;10.50;100.00
70304;BME280;57712;48.752;11.348;2023-04-30T02:49:41;97840.19;;;10.50;100.00
70304;BME280;57712;48.752;11.348;2023-04-30T02:52:08;97829.66;;;10.49;100.00
70304;BME280;57712;48.752;11.348;2023-04-30T02:54:35;97841.44;;;10.46;100.00
70304;BME280;57712;48.752;11.348;2023-04-30T02:57:02;97841.88;;;10.40;100.00
70304;BME280;57712;48.752;11.348;2023-04-30T02:59:29;97831.69;;;10.41;100.00
70304;BME280;57712;48.752;11.348;2023-04-30T03:01:55;97835.59;;;10.44;100.00
70304;BME280;57712;48.752;11.348;2023-04-30T03:04:22;97835.22;;;10.41;100.00
70304;BME280;57712;48.752;11.348;2023-04-30T03:06:49;97843.47;;;10.38;100.00
70304;BME280;57712;48.752;11.348;2023-04-30T03:09:16;97839.91;;;10.41;100.00
70304;BME280;57712;48.752;11.348;2023-04-30T03:11:43;97851.38;;;10.32;100.00
70304;BME280;57712;48.752;11.348;2023-04-30T03:14:10;97830.72;;;10.24;100.00
70304;BME280;57712;48.752;11.348;2023-04-30T03:16:36;97834.13;;;10.35;100.00
70304;BME280;57712;48.752;11.348;2023-04-30T03:19:03;97834.84;;;10.39;100.00
70304;BME280;57712;48.752;11.348;2023-04-30T03:21:30;97833.75;;;10.33;100.00
70304;BME280;57712;48.752;11.348;2023-04-30T03:23:56;97827.09;;;10.34;100.00
70304;BME280;57712;48.752;11.348;2023-04-30T03:26:23;97839.97;;;10.37;100.00
70304;BME280;57712;48.752;11.348;2023-04-30T03:28:50;97840.31;;;10.43;100.00
70304;BME280;57712;48.752;11.348;2023-04-30T03:31:16;97838.78;;;10.38;100.00
70304;BME280;57712;48.752;11.348;2023-04-30T03:33:43;97837.69;;;10.32;100.00
70304;BME280;57712;48.752;11.348;2023-04-30T03:36:10;97838.84;;;10.31;100.00
70304;BME280;57712;48.752;11.348;2023-04-30T03:38:38;97838.84;;;10.31;100.00
70304;BME280;57712;48.752;11.348;2023-04-30T03:41:04;97835.78;;;10.26;100.00
70304;BME280;57712;48.752;11.348;2023-04-30T03:43:32;97826.44;;;10.23;100.00
70304;BME280;57712;48.752;11.348;2023-04-30T03:45:59;97831.13;;;10.19;100.00
70304;BME280;57712;48.752;11.348;2023-04-30T03:48:26;97818.63;;;10.18;100.00
70304;BME280;57712;48.752;11.348;2023-04-30T03:50:53;97820.19;;;10.19;100.00
70304;BME280;57712;48.752;11.348;2023-04-30T03:53:20;97828.41;;;10.19;100.00
70304;BME280;57712;48.752;11.348;2023-04-30T03:55:48;97827.91;;;10.31;100.00
70304;BME280;57712;48.752;11.348;2023-04-30T03:58:15;97826.81;;;10.25;100.00
70304;BME280;57712;48.752;11.348;2023-04-30T04:00:42;97825.63;;;10.26;100.00
70304;BME280;57712;48.752;11.348;2023-04-30T04:03:14;97830.28;;;10.29;100.00
70304;BME280;57712;48.752;11.348;2023-04-30T04:05:41;97826.81;;;10.25;100.00
70304;BME280;57712;48.752;11.348;2023-04-30T04:08:08;97822.88;;;10.26;100.00
70304;BME280;57712;48.752;11.348;2023-04-30T04:10:35;97821.75;;;10.24;100.00
70304;BME280;57712;48.752;11.348;2023-04-30T04:13:01;97825.63;;;10.26;100.00
70304;BME280;57712;48.752;11.348;2023-04-30T04:15:28;97827.59;;;10.26;100.00
70304;BME280;57712;48.752;11.348;2023-04-30T04:17:54;97831.09;;;10.26;100.00
70304;BME280;57712;48.752;11.348;2023-04-30T04:20:21;97834.19;;;10.32;100.00
70304;BME280;57712;48.752;11.348;2023-04-30T04:22:48;97830.63;;;10.31;100.00
70304;BME280;57712;48.752;11.348;2023-04-30T04:25:14;97835.75;;;10.29;100.00
70304;BME280;57712;48.752;11.348;2023-04-30T04:27:43;97843.16;;;10.32;100.00
70304;BME280;57712;48.752;11.348;2023-04-30T04:30:10;97841.22;;;10.29;100.00
70304;BME280;57712;48.752;11.348;2023-04-30T04:32:37;97841.94;;;10.37;100.00
70304;BME280;57712;48.752;11.348;2023-04-30T04:35:14;97845.91;;;10.32;100.00
70304;BME280;57712;48.752;11.348;2023-04-30T04:37:41;97850.84;;;10.45;100.00
70304;BME280;57712;48.752;11.348;2023-04-30T04:40:07;97853.94;;;10.47;100.00
70304;BME280;57712;48.752;11.348;2023-04-30T04:42:34;97851.13;;;10.54;100.00
70304;BME280;57712;48.752;11.348;2023-04-30T04:45:01;97856.97;;;10.56;100.00
70304;BME280;57712;48.752;11.348;2023-04-30T04:47:29;97862.81;;;10.58;100.00
70304;BME280;57712;48.752;11.348;2023-04-30T04:49:56;97849.53;;;10.56;100.00
70304;BME280;57712;48.752;11.348;2023-04-30T04:52:22;97861.22;;;10.60;100.00
70304;BME280;57712;48.752;11.348;2023-04-30T04:54:49;97849.13;;;10.58;100.00
70304;BME280;57712;48.752;11.348;2023-04-30T04:57:16;97851.78;;;10.65;100.00
70304;BME280;57712;48.752;11.348;2023-04-30T04:59:42;97851.03;;;10.61;100.00
70304;BME280;57712;48.752;11.348;2023-04-30T05:02:09;97851.78;;;10.65;100.00
70304;BME280;57712;48.752;11.348;2023-04-30T05:04:36;97858.03;;;10.65;100.00
70304;BME280;57712;48.752;11.348;2023-04-30T05:07:02;97858.03;;;10.65;100.00
70304;BME280;57712;48.752;11.348;2023-04-30T05:09:29;97858.88;;;10.59;100.00
70304;BME280;57712;48.752;11.348;2023-04-30T05:11:56;97852.97;;;10.64;100.00
70304;BME280;57712;48.752;11.348;2023-04-30T05:14:22;97860.28;;;10.74;100.00
70304;BME280;57712;48.752;11.348;2023-04-30T05:16:49;97860.03;;;10.92;100.00
70304;BME280;57712;48.752;11.348;2023-04-30T05:19:16;97866.25;;;10.96;100.00
70304;BME280;57712;48.752;11.348;2023-04-30T05:21:42;97866.97;;;11.00;100.00
70304;BME280;57712;48.752;11.348;2023-04-30T05:24:09;97867.84;;;10.93;100.00
70304;BME280;57712;48.752;11.348;2023-04-30T05:26:36;97873.31;;;10.93;100.00
70304;BME280;57712;48.752;11.348;2023-04-30T05:29:02;97867.69;;;11.04;100.00
70304;BME280;57712;48.752;11.348;2023-04-30T05:31:29;97869.78;;;10.96;100.00
70304;BME280;57712;48.752;11.348;2023-04-30T05:33:57;97873.16;;;11.04;100.00
70304;BME280;57712;48.752;11.348;2023-04-30T05:36:24;97874.28;;;11.10;100.00
70304;BME280;57712;48.752;11.348;2023-04-30T05:38:51;97874.47;;;11.23;100.00
70304;BME280;57712;48.752;11.348;2023-04-30T05:41:17;97874.59;;;11.16;100.00
70304;BME280;57712;48.752;11.348;2023-04-30T05:43:44;97871.16;;;11.35;100.00
70304;BME280;57712;48.752;11.348;2023-04-30T05:46:11;97872.97;;;11.45;100.00
70304;BME280;57712;48.752;11.348;2023-04-30T05:48:38;97876.22;;;11.64;100.00
70304;BME280;57712;48.752;11.348;2023-04-30T05:51:05;97875.53;;;11.83;100.00
70304;BME280;57712;48.752;11.348;2023-04-30T05:53:33;97873.78;;;11.69;100.00
70304;BME280;57712;48.752;11.348;2023-04-30T05:56:00;97872.94;;;11.72;100.00
70304;BME280;57712;48.752;11.348;2023-04-30T05:58:26;97879.31;;;11.66;100.00
70304;BME280;57712;48.752;11.348;2023-04-30T06:00:53;97871.25;;;11.82;100.00
70304;BME280;57712;48.752;11.348;2023-04-30T06:03:20;97874.25;;;11.91;100.00
70304;BME280;57712;48.752;11.348;2023-04-30T06:05:47;97874.91;;;11.99;100.00
70304;BME280;57712;48.752;11.348;2023-04-30T06:08:13;97871.06;;;12.36;100.00
70304;BME280;57712;48.752;11.348;2023-04-30T06:10:40;97869.72;;;12.24;100.00
70304;BME280;57712;48.752;11.348;2023-04-30T06:13:07;97881.19;;;12.19;100.00
70304;BME280;57712;48.752;11.348;2023-04-30T06:15:34;97868.63;;;12.41;100.00
70304;BME280;57712;48.752;11.348;2023-04-30T06:18:01;97874.78;;;12.26;100.00
70304;BME280;57712;48.752;11.348;2023-04-30T06:20:28;97865.94;;;12.38;100.00
70304;BME280;57712;48.752;11.348;2023-04-30T06:22:55;97877.78;;;12.35;100.00
70304;BME280;57712;48.752;11.348;2023-04-30T06:25:21;97869.81;;;12.60;100.00
70304;BME280;57712;48.752;11.348;2023-04-30T06:27:48;97866.78;;;12.75;100.00
70304;BME280;57712;48.752;11.348;2023-04-30T06:30:16;97865.59;;;12.76;100.00
70304;BME280;57712;48.752;11.348;2023-04-30T06:32:43;97863.69;;;12.73;100.00
70304;BME280;57712;48.752;11.348;2023-04-30T06:35:10;97865.81;;;13.01;100.00
70304;BME280;57712;48.752;11.348;2023-04-30T06:37:37;97864.03;;;12.75;100.00
70304;BME280;57712;48.752;11.348;2023-04-30T06:40:04;97865.88;;;13.17;100.00
70304;BME280;57712;48.752;11.348;2023-04-30T06:42:32;97861.53;;;13.20;100.00
70304;BME280;57712;48.752;11.348;2023-04-30T06:45:01;97858.94;;;12.93;100.00
70304;BME280;57712;48.752;11.348;2023-04-30T06:47:31;97863.84;;;13.01;100.00
70304;BME280;57712;48.752;11.348;2023-04-30T06:50:00;97864.72;;;12.98;100.00
70304;BME280;57712;48.752;11.348;2023-04-30T06:52:27;97851.81;;;13.32;100.00
70304;BME280;57712;48.752;11.348;2023-04-30T06:54:54;97857.34;;;13.48;100.00
70304;BME280;57712;48.752;11.348;2023-04-30T06:57:20;97861.47;;;13.40;100.00
70304;BME280;57712;48.752;11.348;2023-04-30T06:59:47;97866.81;;;13.63;100.00
70304;BME280;57712;48.752;11.348;2023-04-30T07:02:14;97867.75;;;13.56;100.00
70304;BME280;57712;48.752;11.348;2023-04-30T07:04:41;97869.72;;;13.40;100.00
70304;BME280;57712;48.752;11.348;2023-04-30T07:07:08;97871.13;;;13.80;100.00
70304;BME280;57712;48.752;11.348;2023-04-30T07:09:35;97867.34;;;13.58;100.00
70304;BME280;57712;48.752;11.348;2023-04-30T07:12:02;97872.41;;;13.60;100.00
70304;BME280;57712;48.752;11.348;2023-04-30T07:14:29;97862.94;;;13.61;100.00
70304;BME280;57712;48.752;11.348;2023-04-30T07:16:55;97866.75;;;13.67;100.00
70304;BME280;57712;48.752;11.348;2023-04-30T07:19:22;97861.31;;;13.63;100.00
70304;BME280;57712;48.752;11.348;2023-04-30T07:21:49;97868.91;;;13.23;100.00
70304;BME280;57712;48.752;11.348;2023-04-30T07:24:15;97851.84;;;13.64;100.00
70304;BME280;57712;48.752;11.348;2023-04-30T07:26:42;97861.31;;;13.63;100.00
70304;BME280;57712;48.752;11.348;2023-04-30T07:29:08;97868.03;;;13.46;100.00
70304;BME280;57712;48.752;11.348;2023-04-30T07:31:35;97865.00;;;13.56;100.00
70304;BME280;57712;48.752;11.348;2023-04-30T07:34:02;97865.75;;;14.06;100.00
70304;BME280;57712;48.752;11.348;2023-04-30T07:36:28;97863.56;;;13.68;100.00
70304;BME280;57712;48.752;11.348;2023-04-30T07:38:56;97869.19;;;13.94;100.00
70304;BME280;57712;48.752;11.348;2023-04-30T07:41:24;97868.72;;;13.66;100.00
70304;BME280;57712;48.752;11.348;2023-04-30T07:43:51;97872.50;;;13.89;100.00
70304;BME280;57712;48.752;11.348;2023-04-30T07:46:18;97868.69;;;13.82;100.00
70304;BME280;57712;48.752;11.348;2023-04-30T07:48:44;97863.03;;;13.90;100.00
70304;BME280;57712;48.752;11.348;2023-04-30T07:51:11;97867.41;;;14.32;100.00
70304;BME280;57712;48.752;11.348;2023-04-30T07:53:38;97857.63;;;14.15;100.00
70304;BME280;57712;48.752;11.348;2023-04-30T07:56:04;97862.34;;;14.31;100.00
70304;BME280;57712;48.752;11.348;2023-04-30T07:58:31;97864.91;;;14.09;100.00
70304;BME280;57712;48.752;11.348;2023-04-30T08:00:58;97869.00;;;14.17;100.00
70304;BME280;57712;48.752;11.348;2023-04-30T08:03:24;97860.47;;;14.57;100.00
70304;BME280;57712;48.752;11.348;2023-04-30T08:05:52;97865.47;;;14.62;100.00
70304;BME280;57712;48.752;11.348;2023-04-30T08:08:18;97866.94;;;14.79;100.00
70304;BME280;57712;48.752;11.348;2023-04-30T08:10:45;97864.00;;;14.99;100.00
70304;BME280;57712;48.752;11.348;2023-04-30T08:13:12;97863.44;;;14.91;100.00
70304;BME280;57712;48.752;11.348;2023-04-30T08:15:38;97873.78;;;14.46;100.00
70304;BME280;57712;48.752;11.348;2023-04-30T08:18:05;97866.47;;;15.22;100.00
70304;BME280;57712;48.752;11.348;2023-04-30T08:20:32;97868.44;;;15.47;100.00
70304;BME280;57712;48.752;11.348;2023-04-30T08:23:01;97865.44;;;15.04;100.00
70304;BME280;57712;48.752;11.348;2023-04-30T08:25:27;97866.53;;;14.93;100.00
70304;BME280;57712;48.752;11.348;2023-04-30T08:27:54;97867.56;;;15.12;100.00
70304;BME280;57712;48.752;11.348;2023-04-30T08:30:21;97860.94;;;15.22;100.00
70304;BME280;57712;48.752;11.348;2023-04-30T08:32:48;97863.38;;;15.33;100.00
70304;BME280;57712;48.752;11.348;2023-04-30T08:35:15;97855.50;;;14.93;100.00
70304;BME280;57712;48.752;11.348;2023-04-30T08:37:44;97864.13;;;15.21;100.00
70304;BME280;57712;48.752;11.348;2023-04-30T08:40:11;97861.28;;;15.63;100.00
70304;BME280;57712;48.752;11.348;2023-04-30T08:42:43;97873.66;;;15.33;100.00
70304;BME280;57712;48.752;11.348;2023-04-30T08:45:11;97857.06;;;15.71;100.00
70304;BME280;57712;48.752;11.348;2023-04-30T08:47:39;97862.13;;;15.59;100.00
70304;BME280;57712;48.752;11.348;2023-04-30T08:50:08;97861.28;;;15.12;100.00
70304;BME280;57712;48.752;11.348;2023-04-30T08:52:36;97855.00;;;16.09;100.00
70304;BME280;57712;48.752;11.348;2023-04-30T08:55:06;97855.09;;;16.19;100.00
70304;BME280;57712;48.752;11.348;2023-04-30T08:57:33;97856.03;;;16.25;100.00
70304;BME280;57712;48.752;11.348;2023-04-30T08:59:59;97857.50;;;16.51;98.33
70304;BME280;57712;48.752;11.348;2023-04-30T09:02:26;97855.94;;;16.50;82.22
70304;BME280;57712;48.752;11.348;2023-04-30T09:04:53;97852.94;;;17.01;87.34
70304;BME280;57712;48.752;11.348;2023-04-30T09:07:21;97860.97;;;16.86;83.11
70304;BME280;57712;48.752;11.348;2023-04-30T09:09:52;97851.50;;;17.68;85.02
70304;BME280;57712;48.752;11.348;2023-04-30T09:12:21;97856.97;;;17.49;71.48
70304;BME280;57712;48.752;11.348;2023-04-30T09:14:59;97859.00;;;17.58;76.69
70304;BME280;57712;48.752;11.348;2023-04-30T09:17:26;97856.56;;;17.20;71.50
70304;BME280;57712;48.752;11.348;2023-04-30T09:19:54;97865.72;;;16.42;72.00
70304;BME280;57712;48.752;11.348;2023-04-30T09:22:31;97849.44;;;16.88;79.17
70304;BME280;57712;48.752;11.348;2023-04-30T09:24:57;97856.88;;;16.91;83.08
70304;BME280;57712;48.752;11.348;2023-04-30T09:27:24;97848.78;;;17.37;86.05
70304;BME280;57712;48.752;11.348;2023-04-30T09:29:51;97849.28;;;17.44;71.47
70304;BME280;57712;48.752;11.348;2023-04-30T09:32:18;97847.66;;;17.65;71.96
70304;BME280;57712;48.752;11.348;2023-04-30T09:34:46;97849.41;;;17.72;70.04
70304;BME280;57712;48.752;11.348;2023-04-30T09:37:13;97843.13;;;18.08;72.68
70304;BME280;57712;48.752;11.348;2023-04-30T09:39:53;97848.53;;;17.53;66.56
70304;BME280;57712;48.752;11.348;2023-04-30T09:42:21;97856.50;;;17.42;70.46
70304;BME280;57712;48.752;11.348;2023-04-30T09:44:47;97862.50;;;17.09;70.89
70304;BME280;57712;48.752;11.348;2023-04-30T09:47:16;97864.19;;;16.41;82.92
70304;BME280;57712;48.752;11.348;2023-04-30T09:49:47;97861.81;;;16.52;86.32
70304;BME280;57712;48.752;11.348;2023-04-30T09:52:14;97860.94;;;16.21;92.35
70304;BME280;57712;48.752;11.348;2023-04-30T09:54:42;97859.88;;;16.05;90.72
70304;BME280;57712;48.752;11.348;2023-04-30T09:57:12;97861.66;;;15.99;92.85
70304;BME280;57712;48.752;11.348;2023-04-30T09:59:43;97862.94;;;16.42;96.23
70304;BME280;57712;48.752;11.348;2023-04-30T10:02:14;97855.84;;;16.76;95.67
70304;BME280;57712;48.752;11.348;2023-04-30T10:04:43;97857.13;;;17.86;89.15
70304;BME280;57712;48.752;11.348;2023-04-30T10:07:20;97855.72;;;17.81;91.10
70304;BME280;57712;48.752;11.348;2023-04-30T10:09:54;97860.22;;;16.86;85.07
70304;BME280;57712;48.752;11.348;2023-04-30T10:12:32;97855.19;;;17.24;85.21
70304;BME280;57712;48.752;11.348;2023-04-30T10:15:24;97848.38;;;18.52;78.41
70304;BME280;57712;48.752;11.348;2023-04-30T10:18:22;97843.47;;;18.46;69.50
70304;BME280;57712;48.752;11.348;2023-04-30T10:20:53;97838.03;;;17.97;74.42
70304;BME280;57712;48.752;11.348;2023-04-30T10:23:21;97843.34;;;17.64;71.47
70304;BME280;57712;48.752;11.348;2023-04-30T10:25:50;97840.63;;;17.73;70.36
70304;BME280;57712;48.752;11.348;2023-04-30T10:28:17;97836.06;;;17.57;76.09
70304;BME280;57712;48.752;11.348;2023-04-30T10:30:43;97831.28;;;17.49;78.51
70304;BME280;57712;48.752;11.348;2023-04-30T10:33:39;97837.22;;;17.78;77.77
70304;BME280;57712;48.752;11.348;2023-04-30T10:36:12;97837.19;;;17.20;82.13
70304;BME280;57712;48.752;11.348;2023-04-30T10:38:40;97835.19;;;16.67;78.15
70304;BME280;57712;48.752;11.348;2023-04-30T10:41:07;97830.94;;;17.87;75.00
70304;BME280;57712;48.752;11.348;2023-04-30T10:43:35;97830.19;;;18.23;68.39
70304;BME280;57712;48.752;11.348;2023-04-30T10:46:02;97836.22;;;17.54;71.48
70304;BME280;57712;48.752;11.348;2023-04-30T10:48:32;97827.78;;;17.67;74.13
70304;BME280;57712;48.752;11.348;2023-04-30T10:51:00;97831.03;;;17.65;64.84
70304;BME280;57712;48.752;11.348;2023-04-30T10:53:31;97837.00;;;17.54;68.48
70304;BME280;57712;48.752;11.348;2023-04-30T10:56:01;97836.59;;;17.25;68.98
70304;BME280;57712;48.752;11.348;2023-04-30T10:58:36;97828.13;;;16.88;67.24
70304;BME280;57712;48.752;11.348;2023-04-30T11:01:14;97817.47;;;16.87;66.29
70304;BME280;57712;48.752;11.348;2023-04-30T11:04:02;97835.50;;;16.48;66.01
70304;BME280;57712;48.752;11.348;2023-04-30T11:06:49;97826.44;;;16.47;69.16
70304;BME280;57712;48.752;11.348;2023-04-30T11:09:34;97818.66;;;16.77;71.42
70304;BME280;57712;48.752;11.348;2023-04-30T11:12:03;97817.09;;;16.76;70.31
70304;BME280;57712;48.752;11.348;2023-04-30T11:14:32;97817.09;;;16.76;79.75
70304;BME280;57712;48.752;11.348;2023-04-30T11:16:59;97813.41;;;16.69;75.40
70304;BME280;57712;48.752;11.348;2023-04-30T11:19:29;97813.22;;;16.95;73.95
70304;BME280;57712;48.752;11.348;2023-04-30T11:24:51;97807.28;;;17.06;81.76
70304;BME280;57712;48.752;11.348;2023-04-30T11:27:28;97806.34;;;16.78;83.75
70304;BME280;57712;48.752;11.348;2023-04-30T11:29:56;97804.59;;;16.93;81.15
70304;BME280;57712;48.752;11.348;2023-04-30T11:32:25;97803.22;;;16.88;76.35
70304;BME280;57712;48.752;11.348;2023-04-30T11:34:53;97801.09;;;17.33;73.52
70304;BME280;57712;48.752;11.348;2023-04-30T11:37:36;97793.53;;;17.82;66.78
70304;BME280;57712;48.752;11.348;2023-04-30T11:40:07;97797.53;;;17.91;69.10
70304;BME280;57712;48.752;11.348;2023-04-30T11:42:40;97791.66;;;18.53;75.79
70304;BME280;57712;48.752;11.348;2023-04-30T11:45:13;97796.59;;;17.75;73.83
70304;BME280;57712;48.752;11.348;2023-04-30T11:47:45;97791.38;;;17.96;74.62
70304;BME280;57712;48.752;11.348;2023-04-30T11:50:13;97790.31;;;17.93;68.89
70304;BME280;57712;48.752;11.348;2023-04-30T11:52:41;97792.66;;;19.91;71.57
70304;BME280;57712;48.752;11.348;2023-04-30T11:55:12;97796.75;;;19.15;63.27
70304;BME280;57712;48.752;11.348;2023-04-30T11:57:46;97793.66;;;19.79;69.95
70304;BME280;57712;48.752;11.348;2023-04-30T12:00:19;97791.09;;;19.90;63.11
70304;BME280;57712;48.752;11.348;2023-04-30T12:02:47;97790.22;;;20.61;62.81
70304;BME280;57712;48.752;11.348;2023-04-30T12:05:16;97783.94;;;20.37;59.36
70304;BME280;57712;48.752;11.348;2023-04-30T12:07:45;97776.53;;;21.22;58.09
70304;BME280;57712;48.752;11.348;2023-04-30T12:10:13;97802.50;;;20.55;55.29
70304;BME280;57712;48.752;11.348;2023-04-30T12:12:41;97792.09;;;19.54;56.02
70304;BME280;57712;48.752;11.348;2023-04-30T12:15:16;97791.94;;;20.20;56.67
70304;BME280;57712;48.752;11.348;2023-04-30T12:17:44;97779.22;;;18.99;57.58
70304;BME280;57712;48.752;11.348;2023-04-30T12:20:13;97785.78;;;18.78;59.83
70304;BME280;57712;48.752;11.348;2023-04-30T12:22:41;97781.50;;;18.50;60.86
70304;BME280;57712;48.752;11.348;2023-04-30T12:25:13;97776.75;;;19.01;61.42
70304;BME280;57712;48.752;11.348;2023-04-30T12:27:41;97778.91;;;18.00;64.05
70304;BME280;57712;48.752;11.348;2023-04-30T12:30:10;97770.13;;;18.20;61.48
70304;BME280;57712;48.752;11.348;2023-04-30T12:32:43;97774.13;;;17.82;63.61
70304;BME280;57712;48.752;11.348;2023-04-30T12:35:19;97765.16;;;18.42;64.79
70304;BME280;57712;48.752;11.348;2023-04-30T12:37:48;97765.59;;;18.59;67.22
70304;BME280;57712;48.752;11.348;2023-04-30T12:40:19;97766.38;;;18.69;65.55
70304;BME280;57712;48.752;11.348;2023-04-30T12:42:49;97767.13;;;18.60;63.57
70304;BME280;57712;48.752;11.348;2023-04-30T12:48:18;97785.97;;;17.92;68.43
70304;BME280;57712;48.752;11.348;2023-04-30T12:50:58;97775.16;;;17.17;70.79
70304;BME280;57712;48.752;11.348;2023-04-30T12:53:26;97773.13;;;17.09;70.83
70304;BME280;57712;48.752;11.348;2023-04-30T12:58:38;97771.94;;;16.79;71.47
70304;BME280;57712;48.752;11.348;2023-04-30T13:01:12;97765.59;;;17.00;76.58